Terminal Aerodrome Forecast
Issued by NWS

Home | Current Version | Previous Version | Text Only | Print | Product List | Glossary On
Versions: 1 2 3 4 5 6 7 8 9 10 11 12 13 14 15
000
FTUS45 KTFX 260520
TAFHVR
TAF
KHVR 260520Z 2606/2706 09008KT P6SM BKN100
     FM261800 18006KT P6SM SCT070 BKN100
      TEMPO 2618/2622 VRB20G40KT -TSRA BKN050CB
     FM270100 20006KT P6SM VCSH OVC100=

USA.gov is the U.S. government's official web portal to all federal, state and local government web resources and services.